Time;durP1;ratioP1;P1;durP2;ratioP2;P2;SDS_P1;SDS_P2;PMS_P1;PMS_P2;Temp;Humidity;BMP_temperature;BMP_pressure;BME280_temperature;BME280_humidity;BME280_pressure;Samples;Min_cycle;Max_cycle;Signal;HPM_P1;HPM_P2
2021/08/14 00:00:04;;;;;;;;;3.75;3.00;;;;;;;;5006207;28;8902;-86
2021/08/14 00:02:31;;;;;;;;;4.00;3.00;;;;;;;;5006868;28;8828;-85
2021/08/14 00:04:58;;;;;;;;;2.25;2.25;;;;;;;;5007662;28;8987;-86
2021/08/14 00:07:26;;;;;;;;;2.75;2.50;;;;;;;;4977936;28;8891;-87
2021/08/14 00:09:53;;;;;;;;;3.50;3.50;;;;;;;;5001268;28;8862;-88
2021/08/14 00:12:21;;;;;;;;;3.75;3.00;;;;;;;;4965121;28;8919;-88
2021/08/14 00:14:49;;;;;;;;;3.25;3.25;;;;;;;;5007221;28;8880;-88
2021/08/14 00:17:17;;;;;;;;;3.75;2.50;;;;;;;;5004902;28;8884;-87
2021/08/14 00:19:44;;;;;;;;;2.25;2.25;;;;;;;;5006522;28;8954;-88
2021/08/14 00:22:11;;;;;;;;;4.00;3.00;;;;;;;;5006054;28;8837;-86
2021/08/14 00:38:10;;;;;;;;;2.00;2.00;;;;;;;;5007629;28;8943;-88
2021/08/14 00:40:39;;;;;;;;;5.50;5.50;;;;;;;;5006842;28;8975;-88
2021/08/14 00:43:07;;;;;;;;;2.75;2.50;;;;;;;;5006340;28;8979;-88
2021/08/14 00:45:40;;;;;;;;;5.50;3.00;;;;;;;;4985505;28;8893;-87
2021/08/14 00:48:08;;;;;;;;;3.00;3.00;;;;;;;;4997105;28;8857;-88
2021/08/14 00:50:36;;;;;;;;;4.75;4.00;;;;;;;;4984626;28;8876;-87
2021/08/14 00:53:03;;;;;;;;;3.00;3.00;;;;;;;;4999073;28;8848;-88
2021/08/14 00:55:32;;;;;;;;;2.00;2.00;;;;;;;;5005893;28;8876;-87
2021/08/14 00:58:00;;;;;;;;;7.25;3.00;;;;;;;;5006668;28;8864;-87
2021/08/14 01:00:27;;;;;;;;;1.00;1.00;;;;;;;;4987257;28;8773;-88
2021/08/14 01:02:56;;;;;;;;;3.25;3.25;;;;;;;;4989304;28;8869;-87
2021/08/14 01:05:23;;;;;;;;;2.00;2.00;;;;;;;;5009305;28;8892;-86
2021/08/14 01:07:53;;;;;;;;;3.75;3.25;;;;;;;;5007982;28;8886;-87
2021/08/14 01:10:20;;;;;;;;;4.00;4.00;;;;;;;;4989162;28;8860;-88
2021/08/14 01:12:50;;;;;;;;;5.00;3.25;;;;;;;;5005513;28;8919;-88
2021/08/14 01:15:27;;;;;;;;;4.25;2.50;;;;;;;;5005807;28;9507;-88
2021/08/14 01:17:55;;;;;;;;;1.50;1.50;;;;;;;;5000651;28;8898;-88
2021/08/14 01:20:22;;;;;;;;;3.00;3.00;;;;;;;;4998199;28;8880;-86
2021/08/14 01:22:50;;;;;;;;;3.00;3.00;;;;;;;;5004870;28;8898;-87
2021/08/14 01:25:19;;;;;;;;;3.00;3.00;;;;;;;;5006338;28;8900;-89
2021/08/14 01:30:31;;;;;;;;;3.25;1.00;;;;;;;;4929170;28;8914;-88
2021/08/14 01:32:58;;;;;;;;;4.00;2.00;;;;;;;;4945458;28;8903;-89
2021/08/14 01:35:26;;;;;;;;;2.50;1.00;;;;;;;;4943702;28;8914;-89
2021/08/14 01:37:53;;;;;;;;;3.25;3.25;;;;;;;;4936492;29;8885;-88
2021/08/14 01:40:23;;;;;;;;;2.00;2.00;;;;;;;;4940044;28;8887;-87
2021/08/14 01:42:52;;;;;;;;;2.00;2.00;;;;;;;;4944201;28;8890;-86
2021/08/14 01:48:00;;;;;;;;;3.75;3.25;;;;;;;;4915333;28;8911;-88
2021/08/14 01:50:27;;;;;;;;;3.00;3.00;;;;;;;;4944644;28;8878;-89
2021/08/14 01:52:55;;;;;;;;;3.25;3.00;;;;;;;;4944296;28;8890;-87
2021/08/14 01:55:22;;;;;;;;;3.00;3.00;;;;;;;;4944779;28;9633;-88
2021/08/14 01:57:51;;;;;;;;;2.75;2.00;;;;;;;;4944455;28;8977;-86
2021/08/14 02:00:19;;;;;;;;;2.00;2.00;;;;;;;;4944441;28;8886;-88
2021/08/14 02:02:46;;;;;;;;;1.75;1.75;;;;;;;;4983890;28;9639;-88
2021/08/14 02:05:13;;;;;;;;;4.50;1.75;;;;;;;;4987197;28;8868;-86
2021/08/14 02:07:43;;;;;;;;;2.25;2.25;;;;;;;;5005235;28;8876;-86
2021/08/14 02:10:12;;;;;;;;;2.00;2.00;;;;;;;;4986061;28;8889;-89
2021/08/14 02:12:39;;;;;;;;;4.75;3.25;;;;;;;;4987417;28;8867;-86
2021/08/14 02:15:10;;;;;;;;;2.00;2.00;;;;;;;;5003499;28;8872;-87
2021/08/14 02:17:37;;;;;;;;;4.25;2.00;;;;;;;;4987089;28;8868;-89
2021/08/14 02:20:06;;;;;;;;;3.00;3.00;;;;;;;;5004296;28;8860;-87
2021/08/14 02:22:34;;;;;;;;;2.75;2.75;;;;;;;;4986548;28;8869;-89
2021/08/14 02:25:01;;;;;;;;;2.00;2.00;;;;;;;;5005329;28;8868;-88
2021/08/14 02:27:28;;;;;;;;;3.25;3.00;;;;;;;;4986751;28;8896;-88
2021/08/14 02:29:56;;;;;;;;;3.00;3.00;;;;;;;;5005436;28;8933;-88
2021/08/14 02:32:25;;;;;;;;;2.00;2.00;;;;;;;;5003692;28;8808;-88
2021/08/14 02:34:52;;;;;;;;;6.50;3.00;;;;;;;;4993543;28;8879;-86
2021/08/14 02:37:20;;;;;;;;;2.75;2.75;;;;;;;;5001426;28;8861;-87
2021/08/14 02:39:47;;;;;;;;;3.00;3.00;;;;;;;;4986185;28;9027;-88
2021/08/14 02:42:15;;;;;;;;;4.00;2.00;;;;;;;;5004714;28;8856;-89
2021/08/14 02:44:42;;;;;;;;;3.75;2.50;;;;;;;;5003528;28;8879;-88
2021/08/14 02:47:09;;;;;;;;;5.50;3.25;;;;;;;;5005027;28;9011;-89
2021/08/14 02:49:38;;;;;;;;;4.25;3.00;;;;;;;;5003754;28;9011;-88
2021/08/14 02:52:06;;;;;;;;;1.75;1.75;;;;;;;;5004869;28;8860;-88
2021/08/14 02:54:34;;;;;;;;;7.25;2.50;;;;;;;;4986026;28;8858;-87
2021/08/14 02:57:01;;;;;;;;;2.00;2.00;;;;;;;;5003782;28;8868;-87
2021/08/14 02:59:28;;;;;;;;;2.25;2.25;;;;;;;;4986395;28;8902;-88
2021/08/14 03:01:56;;;;;;;;;2.00;2.00;;;;;;;;4984738;28;8849;-87
2021/08/14 03:04:23;;;;;;;;;3.50;3.50;;;;;;;;5004236;28;8872;-86
2021/08/14 03:06:57;;;;;;;;;3.25;2.25;;;;;;;;4989201;28;8884;-88
2021/08/14 03:22:13;;;;;;;;;2.50;2.50;;;;;;;;4929876;29;8991;-88
2021/08/14 03:24:41;;;;;;;;;2.75;2.75;;;;;;;;4927490;29;8989;-88
2021/08/14 03:27:08;;;;;;;;;3.25;3.00;;;;;;;;4977546;28;8880;-87
2021/08/14 03:53:19;;;;;;;;;2.50;1.75;;;;;;;;5005141;28;8817;-88
2021/08/14 03:55:46;;;;;;;;;2.00;2.00;;;;;;;;4989289;28;8995;-87
2021/08/14 03:58:13;;;;;;;;;2.00;2.00;;;;;;;;5004821;28;8882;-88
2021/08/14 04:00:41;;;;;;;;;2.50;2.25;;;;;;;;4980916;28;8789;-85
2021/08/14 04:03:08;;;;;;;;;3.50;2.25;;;;;;;;5011228;28;9030;-86
2021/08/14 04:05:35;;;;;;;;;1.25;1.25;;;;;;;;5009123;28;8908;-87
2021/08/14 04:08:03;;;;;;;;;1.25;1.25;;;;;;;;5005741;28;9007;-87
2021/08/14 04:10:33;;;;;;;;;3.00;3.00;;;;;;;;5005995;28;8923;-87
2021/08/14 04:13:00;;;;;;;;;2.00;2.00;;;;;;;;5004800;28;8988;-87
2021/08/14 04:15:29;;;;;;;;;4.25;3.00;;;;;;;;5006449;28;8898;-87
2021/08/14 04:17:56;;;;;;;;;2.75;2.75;;;;;;;;5006489;28;8876;-87
2021/08/14 04:20:23;;;;;;;;;3.00;2.25;;;;;;;;5004560;28;8896;-88
2021/08/14 04:22:51;;;;;;;;;2.00;2.00;;;;;;;;5004776;28;8898;-88
2021/08/14 04:25:18;;;;;;;;;1.50;1.00;;;;;;;;4987263;28;9002;-88
2021/08/14 04:27:47;;;;;;;;;2.00;2.00;;;;;;;;4988583;28;8991;-86
2021/08/14 04:30:15;;;;;;;;;2.00;2.00;;;;;;;;5004661;28;8918;-88
2021/08/14 04:32:43;;;;;;;;;2.50;2.50;;;;;;;;5006282;28;8883;-88
2021/08/14 04:35:11;;;;;;;;;3.00;1.75;;;;;;;;4991782;28;8855;-88
2021/08/14 04:37:39;;;;;;;;;1.25;1.25;;;;;;;;4992817;28;8872;-88
2021/08/14 04:40:09;;;;;;;;;3.00;3.00;;;;;;;;5005328;28;8856;-88
2021/08/14 04:42:37;;;;;;;;;5.00;3.75;;;;;;;;4979398;28;8862;-88
2021/08/14 04:45:08;;;;;;;;;2.00;2.00;;;;;;;;5000119;28;8876;-88
2021/08/14 04:47:38;;;;;;;;;2.00;2.00;;;;;;;;5003996;28;8886;-89
2021/08/14 04:50:06;;;;;;;;;0.75;0.75;;;;;;;;4990782;28;8886;-89
2021/08/14 04:52:34;;;;;;;;;3.00;3.00;;;;;;;;5005041;28;8962;-88
2021/08/14 04:55:01;;;;;;;;;4.50;4.50;;;;;;;;5005622;28;8861;-89
2021/08/14 04:57:28;;;;;;;;;2.00;2.00;;;;;;;;5005898;28;8895;-86
2021/08/14 04:59:56;;;;;;;;;4.25;3.00;;;;;;;;5005053;28;8990;-87
2021/08/14 05:02:25;;;;;;;;;3.00;2.00;;;;;;;;4988237;28;8991;-89
2021/08/14 05:04:52;;;;;;;;;3.25;2.50;;;;;;;;4987582;28;8903;-89
2021/08/14 05:07:19;;;;;;;;;2.00;2.00;;;;;;;;4964664;28;1212917;-87
2021/08/14 05:09:47;;;;;;;;;1.50;1.50;;;;;;;;4987267;28;8900;-88
2021/08/14 05:12:14;;;;;;;;;2.00;2.00;;;;;;;;5006292;28;9012;-88
2021/08/14 05:14:44;;;;;;;;;2.25;2.25;;;;;;;;5005279;28;10163;-87
2021/08/14 05:17:11;;;;;;;;;1.00;1.00;;;;;;;;4994094;28;9034;-88
2021/08/14 05:19:40;;;;;;;;;4.25;4.25;;;;;;;;5005717;28;8860;-88
2021/08/14 05:22:07;;;;;;;;;3.00;3.00;;;;;;;;5005071;28;8868;-88
2021/08/14 05:24:35;;;;;;;;;2.00;2.00;;;;;;;;4988766;28;8857;-87
2021/08/14 05:27:02;;;;;;;;;2.25;2.25;;;;;;;;4987643;28;8894;-88
2021/08/14 05:29:29;;;;;;;;;4.00;2.00;;;;;;;;5005624;28;8888;-87
2021/08/14 05:31:57;;;;;;;;;3.50;2.25;;;;;;;;5004230;28;9599;-88
2021/08/14 05:34:24;;;;;;;;;6.25;2.75;;;;;;;;5005193;28;8884;-88
2021/08/14 05:36:53;;;;;;;;;3.00;3.00;;;;;;;;5005976;28;8906;-88
2021/08/14 05:39:20;;;;;;;;;3.50;3.50;;;;;;;;4988027;28;8879;-87
2021/08/14 05:41:52;;;;;;;;;4.00;4.00;;;;;;;;5006035;28;8887;-87
2021/08/14 05:44:19;;;;;;;;;3.25;3.25;;;;;;;;5004393;28;8908;-85
2021/08/14 05:46:46;;;;;;;;;5.50;3.00;;;;;;;;5005766;28;8890;-88
2021/08/14 05:49:14;;;;;;;;;5.00;3.75;;;;;;;;4971799;28;8876;-86
2021/08/14 05:51:41;;;;;;;;;6.25;4.00;;;;;;;;4999068;28;8872;-87
2021/08/14 05:54:10;;;;;;;;;4.75;4.75;;;;;;;;4996551;28;8846;-88
2021/08/14 05:56:38;;;;;;;;;4.50;4.50;;;;;;;;5000976;28;8891;-87
2021/08/14 05:59:06;;;;;;;;;4.00;3.00;;;;;;;;5005493;28;8864;-86
2021/08/14 06:01:33;;;;;;;;;5.00;5.00;;;;;;;;5002917;28;8808;-84
2021/08/14 06:04:00;;;;;;;;;4.00;4.00;;;;;;;;5002147;28;8872;-84
2021/08/14 06:06:28;;;;;;;;;7.75;6.50;;;;;;;;4985588;28;8884;-85
2021/08/14 06:08:55;;;;;;;;;4.25;4.25;;;;;;;;4987292;28;8905;-85
2021/08/14 06:11:24;;;;;;;;;6.00;6.00;;;;;;;;5001655;28;8872;-87
2021/08/14 06:13:51;;;;;;;;;5.25;4.75;;;;;;;;5003933;28;8906;-86
2021/08/14 06:16:19;;;;;;;;;11.50;4.50;;;;;;;;5004100;28;8859;-86
2021/08/14 06:18:47;;;;;;;;;6.25;4.75;;;;;;;;4985054;28;8887;-87
2021/08/14 06:21:14;;;;;;;;;6.00;5.00;;;;;;;;5003400;28;8876;-84
2021/08/14 06:23:41;;;;;;;;;4.50;4.50;;;;;;;;5000732;28;8947;-84
2021/08/14 06:26:11;;;;;;;;;6.75;5.25;;;;;;;;4970566;28;8926;-86
2021/08/14 06:28:40;;;;;;;;;6.50;4.50;;;;;;;;5003572;28;8985;-85
2021/08/14 06:31:08;;;;;;;;;6.50;5.75;;;;;;;;4984417;28;8828;-85
2021/08/14 06:33:35;;;;;;;;;6.25;4.00;;;;;;;;5004154;28;8998;-86
2021/08/14 06:36:03;;;;;;;;;8.00;6.50;;;;;;;;5001183;28;8902;-87
2021/08/14 06:38:31;;;;;;;;;5.00;5.00;;;;;;;;4999848;28;8982;-88
2021/08/14 06:40:58;;;;;;;;;6.25;5.00;;;;;;;;5002388;28;8891;-84
2021/08/14 06:43:25;;;;;;;;;5.00;5.00;;;;;;;;5002192;28;8912;-85
2021/08/14 06:45:54;;;;;;;;;4.75;4.75;;;;;;;;5003820;28;8888;-87
2021/08/14 06:48:21;;;;;;;;;3.25;3.25;;;;;;;;5003755;28;8884;-86
2021/08/14 06:50:49;;;;;;;;;3.25;3.25;;;;;;;;5008511;28;8942;-86
2021/08/14 06:53:17;;;;;;;;;8.50;5.00;;;;;;;;5007470;28;8991;-86
2021/08/14 06:55:45;;;;;;;;;6.75;4.50;;;;;;;;5008347;28;9022;-88
2021/08/14 06:58:12;;;;;;;;;3.50;3.50;;;;;;;;5007005;28;8887;-88
2021/08/14 07:00:39;;;;;;;;;5.25;4.00;;;;;;;;4990477;28;8804;-84
2021/08/14 07:03:09;;;;;;;;;3.50;3.25;;;;;;;;5007219;28;8868;-85
2021/08/14 07:05:40;;;;;;;;;3.75;3.75;;;;;;;;5008371;28;8999;-86
2021/08/14 07:08:07;;;;;;;;;5.00;5.00;;;;;;;;5008075;28;8840;-85
2021/08/14 07:10:35;;;;;;;;;6.50;4.75;;;;;;;;5006570;28;8872;-83
2021/08/14 07:13:03;;;;;;;;;4.25;4.25;;;;;;;;5008066;28;8896;-79
2021/08/14 07:15:30;;;;;;;;;5.25;4.50;;;;;;;;5003281;28;8857;-77
2021/08/14 07:17:58;;;;;;;;;4.75;4.75;;;;;;;;5007241;28;8872;-78
2021/08/14 07:20:27;;;;;;;;;2.75;2.75;;;;;;;;5005845;28;8877;-77
2021/08/14 07:22:54;;;;;;;;;6.25;4.50;;;;;;;;5007147;28;8979;-77
2021/08/14 07:25:21;;;;;;;;;5.75;4.00;;;;;;;;4988907;28;9641;-75
2021/08/14 07:27:48;;;;;;;;;2.50;2.50;;;;;;;;5006023;28;8874;-80
2021/08/14 07:30:16;;;;;;;;;4.75;4.25;;;;;;;;5006341;28;8848;-79
2021/08/14 07:32:43;;;;;;;;;4.00;4.00;;;;;;;;5006159;28;8864;-77
2021/08/14 07:35:12;;;;;;;;;4.80;4.00;;;;;;;;4972274;28;8877;-79
2021/08/14 07:37:47;;;;;;;;;3.60;3.60;;;;;;;;5003123;28;8872;-78
2021/08/14 07:40:17;;;;;;;;;4.00;2.80;;;;;;;;5006767;28;8860;-79
2021/08/14 07:42:45;;;;;;;;;3.80;3.80;;;;;;;;5006290;28;8983;-81
2021/08/14 07:45:17;;;;;;;;;6.20;5.00;;;;;;;;4987776;28;8903;-81
2021/08/14 07:47:48;;;;;;;;;4.00;4.00;;;;;;;;5006439;28;8879;-79
2021/08/14 07:50:19;;;;;;;;;1.60;1.00;;;;;;;;5005799;28;8875;-81
2021/08/14 07:52:48;;;;;;;;;2.00;2.00;;;;;;;;5006315;28;9007;-80
2021/08/14 07:55:16;;;;;;;;;2.40;2.40;;;;;;;;5004781;28;8882;-80
2021/08/14 07:57:44;;;;;;;;;5.40;4.60;;;;;;;;5006153;28;8849;-81
2021/08/14 08:00:13;;;;;;;;;1.60;1.60;;;;;;;;5005814;28;8845;-79
2021/08/14 08:02:41;;;;;;;;;3.20;3.20;;;;;;;;5005894;28;8868;-80
2021/08/14 08:05:10;;;;;;;;;2.00;2.00;;;;;;;;5006234;28;8960;-81
2021/08/14 08:07:40;;;;;;;;;3.80;3.80;;;;;;;;4988245;28;8864;-81
2021/08/14 08:10:10;;;;;;;;;4.00;3.00;;;;;;;;4989531;28;9622;-81
2021/08/14 08:12:38;;;;;;;;;2.60;1.60;;;;;;;;5005672;28;8860;-80
2021/08/14 08:15:06;;;;;;;;;2.40;2.40;;;;;;;;4988076;28;8864;-79
2021/08/14 08:17:34;;;;;;;;;2.80;2.80;;;;;;;;4987964;28;8882;-81
2021/08/14 08:20:01;;;;;;;;;1.40;1.00;;;;;;;;5005837;28;8884;-80
2021/08/14 08:22:29;;;;;;;;;4.40;3.00;;;;;;;;4988589;28;8903;-81
2021/08/14 08:24:56;;;;;;;;;1.00;1.00;;;;;;;;5004065;28;9598;-80
2021/08/14 08:27:30;;;;;;;;;2.60;2.60;;;;;;;;5005438;28;8845;-85
2021/08/14 08:29:57;;;;;;;;;3.40;3.40;;;;;;;;5001656;28;9628;-80
2021/08/14 08:32:25;;;;;;;;;2.80;1.60;;;;;;;;5005355;28;8835;-81
2021/08/14 08:34:52;;;;;;;;;5.00;3.00;;;;;;;;4987493;28;8840;-81
2021/08/14 08:37:19;;;;;;;;;3.40;3.40;;;;;;;;5004324;28;8852;-81
2021/08/14 08:39:46;;;;;;;;;3.80;3.80;;;;;;;;5005708;28;8841;-83
2021/08/14 08:42:14;;;;;;;;;4.00;1.20;;;;;;;;5004329;28;9595;-81
2021/08/14 08:44:43;;;;;;;;;4.00;3.00;;;;;;;;5005640;28;8904;-81
2021/08/14 08:47:11;;;;;;;;;1.80;0.80;;;;;;;;5003646;28;8982;-79
2021/08/14 08:49:44;;;;;;;;;4.00;3.60;;;;;;;;5005828;28;8864;-80
2021/08/14 08:52:11;;;;;;;;;2.60;2.60;;;;;;;;5002380;28;8910;-80
2021/08/14 08:54:39;;;;;;;;;2.60;2.00;;;;;;;;5004649;28;8894;-80
2021/08/14 08:57:07;;;;;;;;;3.40;2.20;;;;;;;;4987580;28;8875;-79
2021/08/14 08:59:35;;;;;;;;;2.00;2.00;;;;;;;;4986372;28;8868;-78
2021/08/14 09:02:04;;;;;;;;;3.60;3.60;;;;;;;;5004696;28;8813;-80
2021/08/14 09:04:32;;;;;;;;;3.00;3.00;;;;;;;;5003845;28;8844;-81
2021/08/14 09:07:01;;;;;;;;;4.00;2.00;;;;;;;;5005456;28;8872;-83
2021/08/14 09:09:30;;;;;;;;;2.80;2.80;;;;;;;;5002578;28;8888;-81
2021/08/14 09:12:00;;;;;;;;;1.40;1.40;;;;;;;;5004270;28;8880;-81
2021/08/14 09:14:29;;;;;;;;;3.80;1.80;;;;;;;;5005329;28;8872;-81
2021/08/14 09:17:09;;;;;;;;;3.60;3.60;;;;;;;;4987094;28;8880;-81
2021/08/14 09:19:37;;;;;;;;;2.40;2.40;;;;;;;;4987972;28;8916;-81
2021/08/14 09:22:13;;;;;;;;;4.00;2.40;;;;;;;;5004209;28;8864;-81
2021/08/14 09:24:41;;;;;;;;;3.20;3.20;;;;;;;;5004941;28;8864;-81
2021/08/14 09:27:11;;;;;;;;;1.80;1.80;;;;;;;;5005218;28;8890;-81
2021/08/14 09:29:40;;;;;;;;;2.80;2.80;;;;;;;;5003829;28;8919;-80
2021/08/14 09:32:11;;;;;;;;;3.60;3.00;;;;;;;;5004452;28;8809;-81
2021/08/14 09:34:43;;;;;;;;;2.00;2.00;;;;;;;;4985558;28;8994;-80
2021/08/14 09:37:12;;;;;;;;;3.60;1.00;;;;;;;;5004753;28;8857;-80
2021/08/14 09:39:56;;;;;;;;;4.00;4.00;;;;;;;;5004142;28;8892;-80
2021/08/14 09:42:23;;;;;;;;;3.20;3.00;;;;;;;;5004304;28;8899;-80
2021/08/14 09:45:12;;;;;;;;;3.20;2.60;;;;;;;;5005081;28;8889;-79
2021/08/14 09:47:42;;;;;;;;;0.00;0.00;;;;;;;;5003771;28;8864;-80
2021/08/14 09:50:10;;;;;;;;;2.60;2.60;;;;;;;;5005177;28;8876;-80
2021/08/14 09:52:38;;;;;;;;;3.00;3.00;;;;;;;;4986344;28;8910;-79
2021/08/14 09:55:06;;;;;;;;;5.00;4.00;;;;;;;;4987154;28;8900;-79
2021/08/14 09:57:34;;;;;;;;;3.60;2.60;;;;;;;;5005345;28;8860;-80
2021/08/14 10:00:01;;;;;;;;;3.20;3.20;;;;;;;;4985966;28;8884;-80
2021/08/14 10:02:30;;;;;;;;;5.60;4.00;;;;;;;;5004981;28;8945;-79
2021/08/14 10:05:00;;;;;;;;;3.00;3.00;;;;;;;;4985314;28;8887;-79
2021/08/14 10:07:27;;;;;;;;;2.00;2.00;;;;;;;;4987382;28;8887;-79
2021/08/14 10:09:55;;;;;;;;;4.00;2.60;;;;;;;;5003424;28;8965;-80
2021/08/14 10:12:22;;;;;;;;;2.80;2.80;;;;;;;;5004521;28;8860;-78
2021/08/14 10:14:51;;;;;;;;;3.00;3.00;;;;;;;;5003564;28;8861;-78
2021/08/14 10:17:23;;;;;;;;;3.20;3.00;;;;;;;;5003632;28;8910;-78
2021/08/14 10:19:51;;;;;;;;;3.60;1.80;;;;;;;;5005115;28;8865;-78
2021/08/14 10:22:25;;;;;;;;;2.40;2.40;;;;;;;;5002419;28;9006;-79
2021/08/14 10:24:54;;;;;;;;;3.60;3.60;;;;;;;;5004441;28;8942;-79
2021/08/14 10:27:22;;;;;;;;;3.00;3.00;;;;;;;;5003201;28;8876;-78
2021/08/14 10:29:52;;;;;;;;;4.80;3.60;;;;;;;;5004390;28;8928;-78
2021/08/14 10:32:49;;;;;;;;;3.00;3.00;;;;;;;;5003789;28;9626;-78
2021/08/14 10:35:40;;;;;;;;;3.00;3.00;;;;;;;;5003029;28;8864;-79
2021/08/14 10:38:38;;;;;;;;;2.60;2.60;;;;;;;;5004394;28;9724;-79
2021/08/14 10:41:05;;;;;;;;;4.20;3.60;;;;;;;;5004376;28;8879;-79
2021/08/14 10:43:58;;;;;;;;;3.20;3.20;;;;;;;;5003282;28;8909;-78
2021/08/14 10:46:37;;;;;;;;;6.00;3.00;;;;;;;;5005241;28;8893;-77
2021/08/14 10:49:06;;;;;;;;;6.00;3.00;;;;;;;;4986265;28;9019;-79
2021/08/14 10:52:06;;;;;;;;;5.00;5.00;;;;;;;;4986275;28;8872;-78
2021/08/14 10:55:15;;;;;;;;;4.00;2.20;;;;;;;;5004430;28;8836;-79
2021/08/14 10:57:48;;;;;;;;;5.20;4.00;;;;;;;;4995439;28;8953;-78
2021/08/14 11:00:29;;;;;;;;;5.00;3.00;;;;;;;;5003086;28;8884;-79
2021/08/14 11:03:14;;;;;;;;;6.20;5.80;;;;;;;;5004320;28;8971;-78
2021/08/14 11:05:45;;;;;;;;;5.80;5.40;;;;;;;;4985100;28;8896;-78
2021/08/14 11:08:39;;;;;;;;;3.60;2.00;;;;;;;;4987181;28;8884;-78
2021/08/14 11:11:37;;;;;;;;;1.00;1.00;;;;;;;;4957196;28;8942;-78
2021/08/14 11:14:08;;;;;;;;;1.40;1.40;;;;;;;;4985565;28;8856;-78
2021/08/14 11:16:58;;;;;;;;;3.00;3.00;;;;;;;;4991300;28;8872;-79
2021/08/14 11:19:58;;;;;;;;;3.00;3.00;;;;;;;;5003741;28;8884;-79
2021/08/14 11:22:31;;;;;;;;;2.00;2.00;;;;;;;;4923613;29;8999;-78
2021/08/14 11:25:01;;;;;;;;;4.20;3.00;;;;;;;;4924222;29;8881;-78
2021/08/14 11:27:31;;;;;;;;;2.00;2.00;;;;;;;;4961936;28;8884;-79
2021/08/14 11:30:01;;;;;;;;;2.80;2.00;;;;;;;;4985931;28;8864;-79
2021/08/14 11:32:29;;;;;;;;;4.20;1.80;;;;;;;;5003297;28;9992;-78
2021/08/14 11:34:57;;;;;;;;;2.60;2.60;;;;;;;;5007079;28;8880;-78
2021/08/14 11:37:25;;;;;;;;;1.60;1.60;;;;;;;;5006698;28;8852;-78
2021/08/14 11:40:00;;;;;;;;;1.40;1.40;;;;;;;;4989072;28;8860;-78
2021/08/14 11:42:31;;;;;;;;;2.40;2.00;;;;;;;;5007217;28;8867;-79
2021/08/14 11:45:01;;;;;;;;;3.80;2.00;;;;;;;;5004943;28;8869;-79
2021/08/14 11:47:38;;;;;;;;;2.00;2.00;;;;;;;;5006225;28;8871;-79
2021/08/14 11:50:07;;;;;;;;;1.80;1.80;;;;;;;;5006618;28;8882;-79
2021/08/14 11:52:35;;;;;;;;;0.20;0.20;;;;;;;;5006162;28;9463;-79
2021/08/14 11:55:07;;;;;;;;;1.60;1.60;;;;;;;;5006838;28;8852;-78
2021/08/14 11:57:37;;;;;;;;;1.20;0.00;;;;;;;;5005886;28;9791;-79
2021/08/14 12:00:22;;;;;;;;;1.00;1.00;;;;;;;;5006201;28;8860;-79
2021/08/14 12:02:51;;;;;;;;;2.60;1.00;;;;;;;;5005701;28;8937;-78
2021/08/14 12:05:24;;;;;;;;;1.40;1.40;;;;;;;;5006430;28;8888;-79
2021/08/14 12:07:51;;;;;;;;;0.40;0.40;;;;;;;;5006655;28;8882;-78
2021/08/14 12:10:22;;;;;;;;;2.20;2.20;;;;;;;;5005934;28;8869;-78
2021/08/14 12:12:58;;;;;;;;;1.60;1.60;;;;;;;;4989227;28;8873;-78
2021/08/14 12:15:36;;;;;;;;;3.00;3.00;;;;;;;;5005037;28;8876;-79
2021/08/14 12:18:04;;;;;;;;;5.20;2.00;;;;;;;;5006764;28;8888;-78
2021/08/14 12:20:33;;;;;;;;;6.20;2.00;;;;;;;;5006241;28;8861;-78
2021/08/14 12:23:20;;;;;;;;;1.80;1.80;;;;;;;;4993060;28;8975;-79
2021/08/14 12:25:52;;;;;;;;;1.20;1.20;;;;;;;;4988697;28;8891;-79
2021/08/14 12:28:25;;;;;;;;;2.60;1.00;;;;;;;;5005129;28;8888;-78
2021/08/14 12:30:52;;;;;;;;;1.00;1.00;;;;;;;;5005534;28;8801;-79
2021/08/14 12:33:27;;;;;;;;;1.80;1.00;;;;;;;;5005438;28;8892;-79
2021/08/14 12:35:59;;;;;;;;;2.00;2.00;;;;;;;;5005629;28;8888;-79
2021/08/14 12:38:27;;;;;;;;;2.80;1.60;;;;;;;;5006300;28;8864;-79
2021/08/14 12:40:54;;;;;;;;;2.40;0.80;;;;;;;;4987153;28;8907;-79
2021/08/14 12:43:24;;;;;;;;;2.00;2.00;;;;;;;;5005445;28;8946;-78
2021/08/14 12:45:52;;;;;;;;;1.80;1.80;;;;;;;;5004359;28;9716;-78
2021/08/14 12:48:19;;;;;;;;;4.20;3.80;;;;;;;;5006033;28;8898;-78
2021/08/14 12:50:47;;;;;;;;;2.00;2.00;;;;;;;;5006104;28;8995;-79
2021/08/14 12:53:17;;;;;;;;;1.40;1.20;;;;;;;;5006078;28;8880;-79
2021/08/14 12:55:45;;;;;;;;;2.40;0.80;;;;;;;;5005698;28;8848;-79
2021/08/14 12:58:14;;;;;;;;;3.00;2.00;;;;;;;;5004589;28;8899;-79
2021/08/14 13:00:47;;;;;;;;;1.40;1.40;;;;;;;;5005099;28;8796;-78
2021/08/14 13:03:14;;;;;;;;;1.80;1.80;;;;;;;;5004693;28;8938;-78
2021/08/14 13:05:41;;;;;;;;;1.80;1.80;;;;;;;;5005516;28;8881;-79
2021/08/14 13:08:09;;;;;;;;;2.40;2.00;;;;;;;;5004619;28;8872;-78
2021/08/14 13:10:37;;;;;;;;;0.00;0.00;;;;;;;;5005249;28;8898;-79
2021/08/14 13:13:06;;;;;;;;;1.00;1.00;;;;;;;;5005997;28;8848;-77
2021/08/14 13:15:34;;;;;;;;;2.00;2.00;;;;;;;;5004348;28;8908;-79
2021/08/14 13:18:02;;;;;;;;;1.00;1.00;;;;;;;;5005342;28;8864;-79
2021/08/14 13:20:31;;;;;;;;;1.00;1.00;;;;;;;;5004799;28;8900;-79
2021/08/14 13:22:58;;;;;;;;;1.20;1.20;;;;;;;;5005342;28;9622;-79
2021/08/14 13:25:26;;;;;;;;;1.00;1.00;;;;;;;;5003917;28;8914;-79
2021/08/14 13:27:54;;;;;;;;;0.60;0.60;;;;;;;;5003845;28;8841;-80
2021/08/14 13:30:23;;;;;;;;;1.60;1.60;;;;;;;;5003882;28;8883;-79
2021/08/14 13:32:51;;;;;;;;;0.80;0.80;;;;;;;;4984934;28;8856;-79
2021/08/14 13:35:21;;;;;;;;;1.80;1.20;;;;;;;;5005151;28;8861;-80
2021/08/14 13:37:48;;;;;;;;;0.40;0.40;;;;;;;;5004020;28;8874;-80
2021/08/14 13:40:17;;;;;;;;;5.00;3.00;;;;;;;;4987713;28;8860;-80
2021/08/14 13:42:44;;;;;;;;;1.40;1.00;;;;;;;;5003949;28;8853;-79
2021/08/14 13:45:14;;;;;;;;;1.20;1.20;;;;;;;;5004748;28;8882;-79
2021/08/14 13:47:41;;;;;;;;;0.60;0.60;;;;;;;;4987305;28;8864;-79
2021/08/14 13:50:10;;;;;;;;;2.00;0.00;;;;;;;;5004324;28;8933;-80
2021/08/14 13:52:39;;;;;;;;;2.00;2.00;;;;;;;;5004868;28;8963;-80
2021/08/14 13:55:07;;;;;;;;;2.20;1.00;;;;;;;;5003641;28;8888;-79
2021/08/14 13:57:35;;;;;;;;;0.00;0.00;;;;;;;;5004723;28;8856;-79
2021/08/14 14:00:02;;;;;;;;;0.60;0.60;;;;;;;;5003445;28;8876;-80
2021/08/14 14:02:31;;;;;;;;;0.60;0.60;;;;;;;;5003740;28;8837;-79
2021/08/14 14:04:58;;;;;;;;;0.00;0.00;;;;;;;;5003858;28;9564;-80
2021/08/14 14:07:25;;;;;;;;;0.00;0.00;;;;;;;;5003796;28;8894;-79
2021/08/14 14:09:55;;;;;;;;;2.20;1.40;;;;;;;;5004308;28;8849;-80
2021/08/14 14:12:22;;;;;;;;;0.80;0.80;;;;;;;;5004153;28;8868;-79
2021/08/14 14:14:50;;;;;;;;;1.00;1.00;;;;;;;;5004524;28;8906;-79
2021/08/14 14:17:17;;;;;;;;;1.80;1.80;;;;;;;;5003097;28;8890;-79
2021/08/14 14:19:45;;;;;;;;;1.00;1.00;;;;;;;;5004555;28;8865;-79
2021/08/14 14:22:13;;;;;;;;;0.00;0.00;;;;;;;;5004136;28;8856;-79
2021/08/14 14:24:40;;;;;;;;;0.60;0.00;;;;;;;;5003988;28;8982;-79
2021/08/14 14:27:09;;;;;;;;;2.80;1.40;;;;;;;;5004664;28;8848;-79
2021/08/14 14:29:36;;;;;;;;;0.60;0.60;;;;;;;;5003417;28;8986;-79
2021/08/14 14:32:06;;;;;;;;;2.00;0.60;;;;;;;;5003655;28;8820;-80
2021/08/14 14:34:33;;;;;;;;;3.20;2.80;;;;;;;;5003028;28;8886;-80
2021/08/14 14:37:02;;;;;;;;;1.00;1.00;;;;;;;;4970597;28;9666;-80
2021/08/14 14:39:29;;;;;;;;;0.00;0.00;;;;;;;;5003602;28;8887;-80
2021/08/14 14:41:56;;;;;;;;;0.75;0.75;;;;;;;;5004004;28;8937;-79
2021/08/14 14:44:25;;;;;;;;;0.50;0.50;;;;;;;;5004212;28;9622;-79
2021/08/14 14:46:52;;;;;;;;;1.00;1.00;;;;;;;;5003177;28;8884;-79
2021/08/14 14:49:20;;;;;;;;;1.00;1.00;;;;;;;;5004098;28;8898;-80
2021/08/14 14:51:47;;;;;;;;;0.40;0.40;;;;;;;;5003212;28;8880;-80
2021/08/14 14:54:18;;;;;;;;;0.20;0.20;;;;;;;;5004201;28;8929;-80
2021/08/14 14:56:45;;;;;;;;;0.00;0.00;;;;;;;;5003449;28;8892;-79
2021/08/14 14:59:12;;;;;;;;;1.80;1.80;;;;;;;;5004139;28;8865;-80
2021/08/14 15:01:41;;;;;;;;;1.00;1.00;;;;;;;;5003561;28;8825;-79
2021/08/14 15:04:09;;;;;;;;;1.40;0.80;;;;;;;;5003263;28;8914;-79
2021/08/14 15:06:36;;;;;;;;;0.20;0.00;;;;;;;;5003766;28;8833;-79
2021/08/14 15:09:04;;;;;;;;;1.20;1.20;;;;;;;;5006290;28;8889;-80
2021/08/14 15:11:31;;;;;;;;;1.60;1.00;;;;;;;;5007614;28;8968;-80
2021/08/14 15:13:58;;;;;;;;;0.00;0.00;;;;;;;;5006713;28;9692;-79
2021/08/14 15:16:26;;;;;;;;;2.00;0.00;;;;;;;;4990152;28;8874;-79
2021/08/14 15:18:54;;;;;;;;;0.40;0.40;;;;;;;;5007682;28;8887;-79
2021/08/14 15:21:22;;;;;;;;;0.40;0.40;;;;;;;;5007143;28;8910;-79
2021/08/14 15:23:49;;;;;;;;;1.50;1.00;;;;;;;;5007386;28;8836;-79
2021/08/14 15:26:16;;;;;;;;;1.25;1.25;;;;;;;;5006338;28;8872;-80
2021/08/14 15:28:44;;;;;;;;;0.50;0.50;;;;;;;;5007398;28;8872;-80
2021/08/14 15:31:13;;;;;;;;;2.00;0.50;;;;;;;;5005515;28;8817;-79
2021/08/14 15:33:40;;;;;;;;;0.50;0.50;;;;;;;;5007394;28;8922;-80
2021/08/14 15:36:09;;;;;;;;;1.00;1.00;;;;;;;;5006907;28;8852;-78
2021/08/14 15:38:36;;;;;;;;;2.00;2.00;;;;;;;;5006686;28;8886;-79
2021/08/14 15:41:05;;;;;;;;;1.40;1.40;;;;;;;;5007390;28;8889;-79
2021/08/14 15:43:32;;;;;;;;;2.20;1.00;;;;;;;;5006380;28;8852;-79
2021/08/14 15:45:59;;;;;;;;;3.20;0.00;;;;;;;;5007236;28;8897;-80
2021/08/14 15:48:26;;;;;;;;;1.00;1.00;;;;;;;;5006122;28;8864;-80
2021/08/14 15:50:54;;;;;;;;;4.20;1.20;;;;;;;;5007284;28;9660;-79
2021/08/14 15:53:22;;;;;;;;;1.00;1.00;;;;;;;;5006429;28;8848;-79
2021/08/14 15:55:50;;;;;;;;;0.80;0.80;;;;;;;;5006642;28;8872;-79
2021/08/14 15:58:17;;;;;;;;;0.20;0.20;;;;;;;;5006790;28;8947;-79
2021/08/14 16:00:44;;;;;;;;;0.60;0.60;;;;;;;;5005463;28;8875;-78
2021/08/14 16:03:12;;;;;;;;;0.60;0.60;;;;;;;;4989351;28;8872;-79